Time;durP1;ratioP1;P1;durP2;ratioP2;P2;SDS_P1;SDS_P2;PMS_P1;PMS_P2;Temp;Humidity;BMP_temperature;BMP_pressure;BME280_temperature;BME280_humidity;BME280_pressure;Samples;Min_cycle;Max_cycle;Signal;HPM_P1;HPM_P2
2023/05/14 00:00:14;;;;;;;5.23;4.73;;;11.00;99.90;;;;;;5115642;28;20185;-51
2023/05/14 00:02:39;;;;;;;8.60;4.50;;;10.90;99.90;;;;;;5115676;28;20225;-51
2023/05/14 00:05:06;;;;;;;4.77;4.17;;;10.90;99.90;;;;;;5115581;28;20534;-50
2023/05/14 00:07:32;;;;;;;4.80;4.40;;;10.80;99.90;;;;;;5115896;28;20186;-50
2023/05/14 00:09:57;;;;;;;4.67;4.13;;;10.80;99.90;;;;;;5114291;28;20661;-50
2023/05/14 00:12:23;;;;;;;6.77;4.83;;;10.80;99.90;;;;;;5115242;28;20281;-49
2023/05/14 00:14:49;;;;;;;6.43;5.53;;;10.70;99.90;;;;;;5115538;28;20178;-50
2023/05/14 00:17:15;;;;;;;5.53;4.90;;;10.70;99.90;;;;;;5115804;28;20596;-50
2023/05/14 00:19:41;;;;;;;5.67;5.13;;;10.70;99.90;;;;;;5115398;28;20269;-51
2023/05/14 00:22:07;;;;;;;9.40;6.60;;;10.60;99.90;;;;;;5115279;28;20312;-50
2023/05/14 00:24:33;;;;;;;6.73;5.67;;;10.60;99.90;;;;;;5115200;28;20175;-50
2023/05/14 00:26:59;;;;;;;7.03;5.03;;;10.60;99.90;;;;;;5115308;28;20185;-49
2023/05/14 00:29:25;;;;;;;5.97;4.20;;;10.60;99.90;;;;;;5115544;28;20170;-49
2023/05/14 00:31:50;;;;;;;4.40;4.00;;;10.50;99.90;;;;;;5115671;28;20181;-50
2023/05/14 00:34:16;;;;;;;4.70;4.30;;;10.50;99.90;;;;;;5114982;28;20194;-49
2023/05/14 00:36:42;;;;;;;5.20;4.70;;;10.50;99.90;;;;;;5113456;28;20293;-50
2023/05/14 00:39:07;;;;;;;5.53;5.03;;;10.40;99.90;;;;;;5114836;28;20643;-51
2023/05/14 00:41:33;;;;;;;5.77;5.17;;;10.40;99.90;;;;;;5114965;28;20190;-50
2023/05/14 00:43:58;;;;;;;5.90;5.30;;;10.30;99.90;;;;;;5113578;28;20221;-50
2023/05/14 00:46:25;;;;;;;5.70;5.00;;;10.30;99.90;;;;;;5114988;28;20231;-50
2023/05/14 00:48:50;;;;;;;5.77;5.27;;;10.30;99.90;;;;;;5114928;28;20186;-50
2023/05/14 00:51:17;;;;;;;6.63;4.97;;;10.30;99.90;;;;;;5114883;28;20661;-50
2023/05/14 00:53:44;;;;;;;6.40;5.80;;;10.20;99.90;;;;;;5113803;28;20238;-52
2023/05/14 00:56:09;;;;;;;7.57;5.93;;;10.20;99.90;;;;;;5114557;28;20181;-51
2023/05/14 00:58:35;;;;;;;8.53;6.33;;;10.20;99.90;;;;;;5114815;28;20174;-43
2023/05/14 01:01:01;;;;;;;10.00;7.27;;;10.10;99.90;;;;;;5114417;28;20264;-45
2023/05/14 01:03:29;;;;;;;9.23;6.73;;;10.10;99.90;;;;;;5115058;28;20292;-46
2023/05/14 01:06:10;;;;;;;7.33;6.53;;;10.10;99.90;;;;;;5114696;28;20181;-45
2023/05/14 01:09:09;;;;;;;7.00;6.37;;;10.10;99.90;;;;;;5115023;28;20242;-43
2023/05/14 01:11:34;;;;;;;9.50;6.77;;;10.10;99.90;;;;;;5110365;28;20561;-46
2023/05/14 01:14:06;;;;;;;7.13;6.33;;;10.00;99.90;;;;;;5114485;28;20194;-46
2023/05/14 01:16:36;;;;;;;8.80;7.37;;;10.00;99.90;;;;;;5114373;28;20173;-43
2023/05/14 01:19:04;;;;;;;8.50;6.43;;;9.90;99.90;;;;;;5114420;28;20186;-43
2023/05/14 01:21:37;;;;;;;9.70;7.73;;;9.90;99.90;;;;;;5114129;28;20197;-47
2023/05/14 01:24:03;;;;;;;11.23;8.53;;;9.90;99.90;;;;;;5114459;28;20202;-45
2023/05/14 01:26:30;;;;;;;8.53;7.03;;;9.90;99.90;;;;;;5114267;28;20204;-45
2023/05/14 01:29:04;;;;;;;8.87;7.10;;;9.90;99.90;;;;;;5114547;28;20167;-45
2023/05/14 01:31:33;;;;;;;8.77;7.13;;;9.80;99.90;;;;;;5114812;28;20165;-46
2023/05/14 01:34:01;;;;;;;7.87;7.07;;;9.80;99.90;;;;;;5114995;28;20285;-47
2023/05/14 01:36:28;;;;;;;8.73;7.80;;;9.80;99.90;;;;;;5114176;28;20572;-45
2023/05/14 01:38:55;;;;;;;7.83;6.97;;;9.70;99.90;;;;;;5113883;28;20180;-45
2023/05/14 01:41:22;;;;;;;8.03;7.20;;;9.70;99.90;;;;;;5113855;28;20218;-48
2023/05/14 01:43:48;;;;;;;10.53;8.13;;;9.70;99.90;;;;;;5113906;28;20300;-45
2023/05/14 01:46:19;;;;;;;8.03;7.33;;;9.60;99.90;;;;;;5113806;28;20306;-46
2023/05/14 01:48:45;;;;;;;8.10;7.27;;;9.60;99.90;;;;;;5114057;28;20172;-46
2023/05/14 01:51:13;;;;;;;8.00;6.30;;;9.60;99.90;;;;;;5113689;28;20174;-46
2023/05/14 01:53:39;;;;;;;7.37;6.20;;;9.50;99.90;;;;;;5113554;28;20685;-46
2023/05/14 01:56:04;;;;;;;7.13;6.43;;;9.50;99.90;;;;;;5113901;28;20177;-45
2023/05/14 01:58:30;;;;;;;7.87;7.17;;;9.50;99.90;;;;;;5113667;28;20613;-46
2023/05/14 02:00:56;;;;;;;7.57;6.87;;;9.40;99.90;;;;;;5113703;28;20189;-44
2023/05/14 02:03:21;;;;;;;7.47;6.50;;;9.30;99.90;;;;;;5113715;28;20237;-44
2023/05/14 02:05:47;;;;;;;7.70;6.97;;;9.30;99.90;;;;;;5115813;28;20638;-47
2023/05/14 02:08:12;;;;;;;7.40;6.60;;;9.30;99.90;;;;;;5117932;28;20170;-44
2023/05/14 02:10:38;;;;;;;11.53;7.03;;;9.30;99.90;;;;;;5117965;28;20178;-43
2023/05/14 02:13:04;;;;;;;10.53;8.50;;;9.20;99.90;;;;;;5117584;28;20214;-45
2023/05/14 02:15:29;;;;;;;10.87;8.57;;;9.20;99.90;;;;;;5117811;28;20206;-43
2023/05/14 02:17:55;;;;;;;16.33;11.40;;;9.20;99.90;;;;;;5117504;28;20173;-45
2023/05/14 02:20:20;;;;;;;11.83;10.63;;;9.20;99.90;;;;;;5117547;28;20644;-44
2023/05/14 02:22:46;;;;;;;12.30;10.43;;;9.30;99.90;;;;;;5117525;28;20213;-43
2023/05/14 02:25:11;;;;;;;11.90;10.27;;;9.30;99.90;;;;;;5117407;28;20171;-48
2023/05/14 02:27:37;;;;;;;14.27;10.90;;;9.30;99.90;;;;;;5117315;28;20177;-43
2023/05/14 02:30:03;;;;;;;12.57;11.27;;;9.30;99.90;;;;;;5117323;28;20642;-45
2023/05/14 02:32:29;;;;;;;14.27;10.60;;;9.30;99.90;;;;;;5117115;28;20201;-46
2023/05/14 02:34:55;;;;;;;12.93;11.63;;;9.40;99.90;;;;;;5117730;28;20203;-45
2023/05/14 02:37:20;;;;;;;12.80;11.10;;;9.30;99.90;;;;;;5117218;28;20220;-45
2023/05/14 02:39:46;;;;;;;12.77;10.73;;;9.40;99.90;;;;;;5117189;28;20189;-44
2023/05/14 02:42:12;;;;;;;11.57;10.13;;;9.40;99.90;;;;;;5117144;28;20274;-44
2023/05/14 02:44:37;;;;;;;10.83;9.73;;;9.40;99.90;;;;;;5117031;28;20178;-43
2023/05/14 02:47:03;;;;;;;10.93;9.83;;;9.30;99.90;;;;;;5117215;28;20653;-44
2023/05/14 02:49:28;;;;;;;10.10;9.07;;;9.30;99.90;;;;;;5117039;28;20598;-45
2023/05/14 02:51:54;;;;;;;10.63;9.57;;;9.20;99.90;;;;;;5116922;28;20186;-44
2023/05/14 02:54:20;;;;;;;9.50;8.50;;;9.20;99.90;;;;;;5117060;28;20205;-43
2023/05/14 02:56:45;;;;;;;11.10;8.93;;;9.10;99.90;;;;;;5117078;28;20181;-44
2023/05/14 02:59:11;;;;;;;9.43;8.40;;;9.10;99.90;;;;;;5116927;28;20180;-44
2023/05/14 03:01:37;;;;;;;9.67;8.77;;;9.00;99.90;;;;;;5116705;28;20173;-46
2023/05/14 03:04:02;;;;;;;9.13;8.30;;;9.00;99.90;;;;;;5116804;28;20219;-46
2023/05/14 03:06:28;;;;;;;9.90;8.90;;;8.90;99.90;;;;;;5116648;28;20177;-42
2023/05/14 03:08:53;;;;;;;18.30;8.70;;;8.90;99.90;;;;;;5116562;28;20188;-46
2023/05/14 03:11:19;;;;;;;11.33;10.13;;;8.80;99.90;;;;;;5117094;28;20688;-46
2023/05/14 03:13:45;;;;;;;11.57;9.53;;;8.80;99.90;;;;;;5116419;28;20226;-46
2023/05/14 03:16:10;;;;;;;11.73;10.53;;;8.80;99.90;;;;;;5116183;28;20257;-44
2023/05/14 03:18:36;;;;;;;13.70;10.57;;;8.90;99.90;;;;;;5116180;28;20641;-46
2023/05/14 03:21:02;;;;;;;12.80;10.73;;;8.80;99.90;;;;;;5116665;28;20256;-42
2023/05/14 03:23:30;;;;;;;11.63;10.43;;;8.80;99.90;;;;;;5116366;28;20223;-44
2023/05/14 03:25:56;;;;;;;13.87;10.53;;;8.90;99.90;;;;;;5116508;28;20184;-46
2023/05/14 03:28:21;;;;;;;11.87;10.67;;;8.90;99.90;;;;;;5116181;28;20171;-46
2023/05/14 03:30:47;;;;;;;11.67;9.37;;;8.90;99.90;;;;;;5114873;28;20268;-46
2023/05/14 03:33:13;;;;;;;12.30;11.03;;;8.80;99.90;;;;;;5116369;28;20196;-45
2023/05/14 03:35:38;;;;;;;11.93;10.73;;;8.80;99.90;;;;;;5116203;28;20298;-44
2023/05/14 03:38:04;;;;;;;13.77;10.57;;;8.80;99.90;;;;;;5118720;28;20218;-45
2023/05/14 03:40:30;;;;;;;10.53;9.50;;;8.80;99.90;;;;;;5119894;28;20186;-44
2023/05/14 03:42:55;;;;;;;9.87;8.90;;;8.80;99.90;;;;;;5116636;28;20235;-45
2023/05/14 03:45:21;;;;;;;10.43;9.33;;;8.70;99.90;;;;;;5115921;28;20182;-46
2023/05/14 03:47:46;;;;;;;10.37;9.27;;;8.70;99.90;;;;;;5116185;28;20178;-44
2023/05/14 03:50:12;;;;;;;11.03;9.43;;;8.70;99.90;;;;;;5116293;28;20174;-48
2023/05/14 03:52:37;;;;;;;13.43;8.53;;;8.60;99.90;;;;;;5115715;28;20224;-45
2023/05/14 03:55:03;;;;;;;11.93;10.73;;;8.60;99.90;;;;;;5115938;28;20178;-45
2023/05/14 03:57:29;;;;;;;12.63;10.00;;;8.60;99.90;;;;;;5115615;28;20177;-45
2023/05/14 03:59:55;;;;;;;10.50;9.33;;;8.50;99.90;;;;;;5115860;28;20186;-45
2023/05/14 04:02:20;;;;;;;10.90;9.80;;;8.60;99.90;;;;;;5114293;28;20217;-48
2023/05/14 04:04:46;;;;;;;15.20;10.60;;;8.50;99.90;;;;;;5116149;28;20187;-46
2023/05/14 04:07:11;;;;;;;10.50;9.33;;;8.50;99.90;;;;;;5116260;28;20207;-47
2023/05/14 04:09:37;;;;;;;12.87;10.27;;;8.50;99.90;;;;;;5116740;28;20231;-46
2023/05/14 04:12:03;;;;;;;10.53;9.33;;;8.50;99.90;;;;;;5115738;28;20180;-44
2023/05/14 04:14:29;;;;;;;10.87;8.90;;;8.50;99.90;;;;;;5115678;28;20188;-46
2023/05/14 04:16:54;;;;;;;10.60;8.90;;;8.50;99.90;;;;;;5115741;28;20182;-45
2023/05/14 04:19:20;;;;;;;9.13;7.90;;;8.50;99.90;;;;;;5115684;28;20185;-45
2023/05/14 04:21:45;;;;;;;9.10;8.17;;;8.50;99.90;;;;;;5115718;28;20532;-47
2023/05/14 04:24:11;;;;;;;8.27;7.47;;;8.40;99.90;;;;;;5114953;28;20200;-45
2023/05/14 04:26:37;;;;;;;14.47;8.40;;;8.40;99.90;;;;;;5115056;28;20240;-46
2023/05/14 04:29:02;;;;;;;8.83;7.90;;;8.40;99.90;;;;;;5113940;28;20180;-45
2023/05/14 04:31:29;;;;;;;8.23;7.43;;;8.40;99.90;;;;;;5115193;28;20178;-45
2023/05/14 04:33:54;;;;;;;9.60;8.57;;;8.30;99.90;;;;;;5114883;28;20711;-44
2023/05/14 04:36:20;;;;;;;10.13;7.90;;;8.40;99.90;;;;;;5114902;28;20196;-45
2023/05/14 04:38:45;;;;;;;8.53;7.63;;;8.40;99.90;;;;;;5115039;28;20208;-42
2023/05/14 04:41:11;;;;;;;9.00;7.33;;;8.40;99.90;;;;;;5115281;28;20182;-45
2023/05/14 04:43:36;;;;;;;8.23;7.43;;;8.40;99.90;;;;;;5114561;28;20213;-42
2023/05/14 04:46:02;;;;;;;9.40;8.50;;;8.40;99.90;;;;;;5113364;28;20230;-45
2023/05/14 04:48:28;;;;;;;11.30;8.70;;;8.40;99.90;;;;;;5114649;28;20180;-47
2023/05/14 04:50:53;;;;;;;12.93;9.10;;;8.40;99.90;;;;;;5114565;28;20179;-46
2023/05/14 04:53:19;;;;;;;11.53;8.73;;;8.50;99.90;;;;;;5114432;28;20204;-44
2023/05/14 04:55:44;;;;;;;10.37;9.23;;;8.50;99.90;;;;;;5113269;28;20692;-47
2023/05/14 04:58:10;;;;;;;11.90;10.43;;;8.50;99.90;;;;;;5114423;28;20249;-45
2023/05/14 05:00:36;;;;;;;14.23;10.80;;;8.60;99.90;;;;;;5114671;28;20182;-44
2023/05/14 05:03:02;;;;;;;12.93;11.27;;;8.60;99.90;;;;;;5114238;28;20618;-45
2023/05/14 05:05:27;;;;;;;15.13;11.73;;;8.70;99.90;;;;;;5114348;28;20171;-43
2023/05/14 05:07:53;;;;;;;13.97;12.00;;;8.70;99.90;;;;;;5114242;28;20618;-45
2023/05/14 05:10:19;;;;;;;13.50;11.53;;;8.80;99.90;;;;;;5114237;28;20178;-44
2023/05/14 05:12:44;;;;;;;14.10;12.60;;;8.80;99.90;;;;;;5114112;28;20196;-43
2023/05/14 05:15:10;;;;;;;14.30;12.67;;;8.90;99.90;;;;;;5114556;28;20181;-45
2023/05/14 05:17:36;;;;;;;14.30;12.80;;;8.90;99.90;;;;;;5114119;28;20220;-45
2023/05/14 05:20:03;;;;;;;13.43;12.00;;;9.00;99.90;;;;;;5114130;28;20301;-46
2023/05/14 05:22:29;;;;;;;13.73;12.33;;;9.10;99.90;;;;;;5114158;28;20311;-44
2023/05/14 05:24:54;;;;;;;14.23;12.03;;;9.20;99.90;;;;;;5113981;28;20675;-45
2023/05/14 05:27:20;;;;;;;15.40;13.80;;;9.20;99.90;;;;;;5114257;28;20523;-46
2023/05/14 05:29:46;;;;;;;16.07;12.80;;;9.30;99.90;;;;;;5114233;28;20172;-44
2023/05/14 05:32:12;;;;;;;16.63;14.00;;;9.40;99.90;;;;;;5114133;28;20235;-47
2023/05/14 05:34:38;;;;;;;17.07;14.33;;;9.50;99.90;;;;;;5112641;28;20217;-45
2023/05/14 05:37:04;;;;;;;17.90;14.87;;;9.60;99.90;;;;;;5113723;28;20599;-47
2023/05/14 05:39:33;;;;;;;18.73;16.20;;;9.70;99.90;;;;;;5113784;28;20191;-46
2023/05/14 05:42:02;;;;;;;20.13;16.83;;;9.80;99.90;;;;;;5113695;28;20179;-45
2023/05/14 05:44:27;;;;;;;20.43;16.97;;;9.90;99.90;;;;;;5114086;28;20262;-45
2023/05/14 05:46:55;;;;;;;20.73;17.83;;;10.10;99.90;;;;;;5114065;28;20207;-45
2023/05/14 05:49:21;;;;;;;21.93;17.33;;;10.30;99.90;;;;;;5113780;28;20206;-45
2023/05/14 05:51:47;;;;;;;18.70;16.70;;;10.50;99.90;;;;;;5114049;28;20202;-46
2023/05/14 05:54:12;;;;;;;22.57;17.20;;;10.60;99.90;;;;;;5113719;28;20198;-47
2023/05/14 05:56:38;;;;;;;22.00;18.67;;;10.80;99.90;;;;;;5113682;28;20183;-45
2023/05/14 05:59:03;;;;;;;21.67;18.53;;;11.00;99.90;;;;;;5113579;28;20223;-46
2023/05/14 06:01:29;;;;;;;20.57;18.13;;;11.20;99.90;;;;;;5113625;28;20196;-44
2023/05/14 06:03:55;;;;;;;20.63;17.37;;;11.30;99.90;;;;;;5113712;28;20220;-47
2023/05/14 06:06:20;;;;;;;21.10;18.50;;;11.50;99.90;;;;;;5113804;28;20197;-44
2023/05/14 06:08:46;;;;;;;19.50;17.47;;;11.60;99.90;;;;;;5112508;28;20181;-46
2023/05/14 06:11:12;;;;;;;17.43;15.67;;;11.80;99.90;;;;;;5112327;28;20177;-44
2023/05/14 06:13:37;;;;;;;17.37;15.50;;;12.00;99.90;;;;;;5113697;28;20275;-45
2023/05/14 06:16:03;;;;;;;17.17;15.37;;;12.10;99.90;;;;;;5113555;28;20650;-46
2023/05/14 06:18:28;;;;;;;16.50;14.57;;;12.30;99.90;;;;;;5113740;28;20587;-47
2023/05/14 06:20:55;;;;;;;17.40;15.50;;;12.30;99.90;;;;;;5114026;28;20189;-46
2023/05/14 06:23:21;;;;;;;16.77;14.97;;;12.60;99.90;;;;;;5113527;28;20269;-47
2023/05/14 06:25:49;;;;;;;16.53;14.80;;;12.80;99.90;;;;;;5113490;28;20182;-46
2023/05/14 06:28:14;;;;;;;17.30;15.47;;;13.00;99.90;;;;;;5113932;28;20211;-44
2023/05/14 06:30:40;;;;;;;24.20;16.07;;;13.30;99.90;;;;;;5113775;28;20532;-45
2023/05/14 06:33:06;;;;;;;18.07;14.97;;;13.60;99.90;;;;;;5113492;28;20190;-44
2023/05/14 06:35:33;;;;;;;16.70;14.63;;;13.80;99.90;;;;;;5113461;28;20257;-46
2023/05/14 06:37:59;;;;;;;17.13;15.33;;;13.90;99.90;;;;;;5113298;28;20255;-45
2023/05/14 06:40:24;;;;;;;18.00;15.33;;;14.00;99.90;;;;;;5113636;28;20178;-46
2023/05/14 06:42:50;;;;;;;17.23;15.20;;;14.10;99.90;;;;;;5113100;28;20214;-45
2023/05/14 06:45:15;;;;;;;15.07;13.47;;;14.30;99.90;;;;;;5114461;28;20178;-45
2023/05/14 06:47:41;;;;;;;17.13;13.77;;;14.40;99.90;;;;;;5116689;28;20186;-45
2023/05/14 06:50:07;;;;;;;15.60;13.57;;;14.50;99.90;;;;;;5114634;28;20251;-42
2023/05/14 06:52:33;;;;;;;18.47;14.77;;;14.70;99.90;;;;;;5114794;28;20209;-46
2023/05/14 06:54:58;;;;;;;17.37;14.07;;;14.90;99.90;;;;;;5117268;28;20174;-43
2023/05/14 06:57:24;;;;;;;16.77;14.17;;;15.10;99.90;;;;;;5117090;28;20174;-47
2023/05/14 06:59:49;;;;;;;16.47;13.80;;;15.20;99.90;;;;;;5116890;28;20261;-46
2023/05/14 07:02:15;;;;;;;15.70;13.30;;;15.40;99.90;;;;;;5116607;28;20206;-45
2023/05/14 07:04:41;;;;;;;14.73;13.23;;;15.60;99.90;;;;;;5116676;28;20630;-44
2023/05/14 07:07:06;;;;;;;16.50;13.57;;;15.70;99.90;;;;;;5116969;28;20167;-43
2023/05/14 07:09:32;;;;;;;16.17;13.40;;;15.90;99.90;;;;;;5116886;28;20205;-43
2023/05/14 07:11:57;;;;;;;14.60;12.40;;;16.00;99.90;;;;;;5115718;28;20578;-44
2023/05/14 07:14:23;;;;;;;13.40;12.00;;;16.20;99.90;;;;;;5116454;28;20190;-44
2023/05/14 07:16:49;;;;;;;13.53;12.03;;;16.20;99.90;;;;;;5116647;28;20177;-46
2023/05/14 07:19:14;;;;;;;14.50;13.00;;;16.30;99.90;;;;;;5116729;28;20174;-44
2023/05/14 07:21:40;;;;;;;14.13;12.63;;;16.20;99.90;;;;;;5116430;28;20227;-45
2023/05/14 07:24:06;;;;;;;14.47;12.97;;;16.30;99.90;;;;;;5116265;28;20212;-45
2023/05/14 07:26:31;;;;;;;14.77;13.13;;;16.50;99.90;;;;;;5116593;28;20178;-45
2023/05/14 07:28:57;;;;;;;13.80;12.40;;;16.60;99.90;;;;;;5116560;28;20202;-47
2023/05/14 07:31:22;;;;;;;14.30;12.83;;;16.70;99.90;;;;;;5116301;28;20175;-46
2023/05/14 07:33:48;;;;;;;17.47;12.87;;;16.80;99.90;;;;;;5116198;28;20296;-46
2023/05/14 07:36:14;;;;;;;14.73;12.53;;;16.80;99.90;;;;;;5116199;28;20190;-46
2023/05/14 07:38:39;;;;;;;18.53;13.37;;;16.80;99.90;;;;;;5116269;28;20677;-47
2023/05/14 07:41:05;;;;;;;15.80;13.90;;;17.10;99.90;;;;;;5116648;28;20322;-47
2023/05/14 07:43:31;;;;;;;18.63;12.67;;;17.20;99.90;;;;;;5114555;28;20274;-46
2023/05/14 07:45:56;;;;;;;15.13;13.53;;;17.40;99.90;;;;;;5116230;28;20170;-46
2023/05/14 07:48:22;;;;;;;16.00;13.73;;;17.50;99.90;;;;;;5116360;28;20253;-44
2023/05/14 07:50:48;;;;;;;16.20;14.53;;;17.50;99.90;;;;;;5115762;28;20253;-45
2023/05/14 07:53:13;;;;;;;16.53;13.97;;;17.60;99.90;;;;;;5115643;28;20194;-46
2023/05/14 07:55:40;;;;;;;15.53;13.93;;;17.50;99.90;;;;;;5115670;28;20275;-44
2023/05/14 07:58:06;;;;;;;20.13;14.90;;;17.60;99.90;;;;;;5114460;28;20189;-48
2023/05/14 08:00:31;;;;;;;16.73;14.90;;;17.70;99.90;;;;;;5115821;28;20290;-44
2023/05/14 08:02:57;;;;;;;15.27;13.73;;;17.80;99.90;;;;;;5115282;28;20214;-47
2023/05/14 08:05:22;;;;;;;18.37;14.83;;;18.00;99.90;;;;;;5115508;28;20209;-46
2023/05/14 08:07:48;;;;;;;15.80;13.73;;;18.00;99.90;;;;;;5114220;28;20555;-46
2023/05/14 08:10:14;;;;;;;18.87;14.30;;;18.10;99.90;;;;;;5115420;28;20178;-46
2023/05/14 08:12:39;;;;;;;16.77;14.83;;;18.30;99.90;;;;;;5115325;28;20417;-44
2023/05/14 08:15:06;;;;;;;15.03;13.40;;;18.40;99.90;;;;;;5115547;28;20649;-47
2023/05/14 08:17:32;;;;;;;15.07;13.53;;;18.50;99.90;;;;;;5115214;28;20256;-45
2023/05/14 08:19:57;;;;;;;16.07;14.47;;;18.50;99.90;;;;;;5115214;28;20261;-45
2023/05/14 08:22:23;;;;;;;15.27;13.77;;;18.60;99.90;;;;;;5115036;28;20280;-47
2023/05/14 08:24:48;;;;;;;17.77;13.77;;;18.70;99.90;;;;;;5115381;28;20178;-47
2023/05/14 08:27:15;;;;;;;15.83;14.17;;;18.90;99.90;;;;;;5115019;28;20650;-45
2023/05/14 08:29:41;;;;;;;16.13;13.83;;;19.10;99.90;;;;;;5115299;28;20206;-45
2023/05/14 08:32:08;;;;;;;14.53;13.10;;;19.40;99.90;;;;;;5115140;28;20278;-46
2023/05/14 08:34:33;;;;;;;18.53;14.30;;;19.70;99.90;;;;;;5115216;28;20202;-48
2023/05/14 08:36:59;;;;;;;15.20;13.60;;;19.80;99.90;;;;;;5114956;28;20229;-47
2023/05/14 08:39:24;;;;;;;16.00;13.67;;;19.80;99.90;;;;;;5114912;28;20170;-47
2023/05/14 08:41:50;;;;;;;15.80;13.80;;;19.90;99.90;;;;;;5114796;28;20220;-46
2023/05/14 08:44:22;;;;;;;16.10;14.40;;;20.10;99.90;;;;;;5114621;28;20213;-47
2023/05/14 08:46:50;;;;;;;14.83;13.33;;;20.10;99.90;;;;;;5114928;28;20210;-46
2023/05/14 08:49:39;;;;;;;21.53;14.13;;;20.30;99.90;;;;;;5114863;28;20182;-46
2023/05/14 08:52:05;;;;;;;15.10;13.37;;;20.30;99.90;;;;;;5114866;28;20575;-46
2023/05/14 08:54:31;;;;;;;15.53;13.17;;;20.40;99.90;;;;;;5114467;28;20212;-46
2023/05/14 08:56:58;;;;;;;15.30;13.80;;;20.40;99.90;;;;;;5114530;28;20170;-47
2023/05/14 08:59:24;;;;;;;15.70;13.87;;;20.50;99.90;;;;;;5113241;28;20186;-46
2023/05/14 09:01:52;;;;;;;15.00;12.87;;;20.60;99.90;;;;;;5114686;28;20186;-45
2023/05/14 09:04:22;;;;;;;17.80;13.90;;;20.80;99.90;;;;;;5114444;28;20581;-46
2023/05/14 09:06:49;;;;;;;15.03;13.43;;;20.90;99.90;;;;;;5114330;28;20174;-47
2023/05/14 09:09:15;;;;;;;16.63;14.13;;;20.80;99.90;;;;;;5114332;28;20174;-47
2023/05/14 09:11:41;;;;;;;19.63;14.70;;;20.80;99.90;;;;;;5114586;28;20542;-46
2023/05/14 09:14:08;;;;;;;16.50;14.53;;;20.70;99.90;;;;;;5112739;28;20234;-47
2023/05/14 09:16:35;;;;;;;15.67;14.17;;;20.70;99.90;;;;;;5114131;28;20543;-47
2023/05/14 09:19:02;;;;;;;15.97;14.00;;;20.80;99.90;;;;;;5114588;28;20614;-46
2023/05/14 09:21:28;;;;;;;16.13;13.97;;;21.00;99.90;;;;;;5114478;28;20320;-46
2023/05/14 09:23:56;;;;;;;15.37;13.77;;;21.00;99.90;;;;;;5113922;28;20329;-47
2023/05/14 09:26:26;;;;;;;20.07;15.63;;;21.20;99.90;;;;;;5112849;28;20182;-47
2023/05/14 09:28:56;;;;;;;16.57;14.77;;;21.30;99.90;;;;;;5114267;28;20206;-47
2023/05/14 09:31:22;;;;;;;18.10;15.30;;;21.50;99.90;;;;;;5114298;28;20175;-48
2023/05/14 09:33:52;;;;;;;16.97;14.77;;;21.40;99.90;;;;;;5114177;28;20209;-47
2023/05/14 09:36:18;;;;;;;19.40;15.43;;;21.50;99.90;;;;;;5114278;28;20198;-46
2023/05/14 09:38:44;;;;;;;17.00;13.90;;;21.50;99.90;;;;;;5114710;28;20197;-45
2023/05/14 09:41:10;;;;;;;16.87;15.13;;;21.50;99.90;;;;;;5113864;28;20185;-46
2023/05/14 09:43:36;;;;;;;17.73;15.83;;;21.50;99.90;;;;;;5113768;28;20615;-46
2023/05/14 09:46:01;;;;;;;15.53;14.07;;;21.60;99.90;;;;;;5114080;28;20213;-45
2023/05/14 09:48:27;;;;;;;14.87;13.37;;;21.70;99.90;;;;;;5113827;28;20268;-46
2023/05/14 09:50:53;;;;;;;17.40;13.93;;;21.40;99.90;;;;;;5113880;28;20653;-46
2023/05/14 09:53:19;;;;;;;14.27;12.67;;;21.30;99.90;;;;;;5114147;28;20280;-47
2023/05/14 09:55:45;;;;;;;15.03;13.50;;;21.00;99.90;;;;;;5114205;28;20197;-46
2023/05/14 09:58:13;;;;;;;18.87;14.73;;;20.90;99.90;;;;;;5113967;28;20185;-46
2023/05/14 10:00:42;;;;;;;15.37;13.43;;;21.20;99.90;;;;;;5114430;28;20188;-48
2023/05/14 10:03:10;;;;;;;19.03;14.37;;;21.50;99.90;;;;;;5114234;28;20727;-45
2023/05/14 10:05:36;;;;;;;17.83;14.47;;;21.60;99.90;;;;;;5114196;28;20166;-46
2023/05/14 10:08:11;;;;;;;18.47;13.83;;;21.80;99.90;;;;;;5113733;28;20186;-47
2023/05/14 10:10:37;;;;;;;14.97;13.40;;;22.00;99.90;;;;;;5113719;28;20170;-46
2023/05/14 10:13:06;;;;;;;15.43;13.40;;;22.00;99.90;;;;;;5113905;28;20335;-47
2023/05/14 10:15:51;;;;;;;15.70;14.20;;;22.20;99.90;;;;;;5113948;28;20189;-45
2023/05/14 10:18:19;;;;;;;16.03;13.67;;;22.20;99.90;;;;;;5113756;28;20269;-45
2023/05/14 10:21:08;;;;;;;15.60;13.83;;;22.30;99.90;;;;;;5114361;28;20182;-45
2023/05/14 10:23:39;;;;;;;14.17;12.70;;;22.40;99.90;;;;;;5112884;28;20282;-46
2023/05/14 10:26:05;;;;;;;14.87;13.40;;;22.50;99.90;;;;;;5113504;28;20154;-47
2023/05/14 10:28:31;;;;;;;14.97;13.00;;;22.50;99.90;;;;;;5116771;28;20182;-46
2023/05/14 10:30:59;;;;;;;14.93;13.40;;;22.50;99.90;;;;;;5117441;28;20546;-46
2023/05/14 10:33:24;;;;;;;20.10;13.47;;;22.50;99.90;;;;;;5116034;28;20645;-46
2023/05/14 10:36:04;;;;;;;14.10;11.87;;;22.60;99.90;;;;;;5117440;28;20308;-47
2023/05/14 10:38:34;;;;;;;11.80;10.60;;;22.60;99.90;;;;;;5117304;28;20178;-47
2023/05/14 10:41:05;;;;;;;14.87;9.80;;;22.70;99.90;;;;;;5117452;28;20448;-46
2023/05/14 10:43:39;;;;;;;16.73;9.80;;;22.50;99.90;;;;;;5117224;28;20319;-47
2023/05/14 10:46:05;;;;;;;9.77;8.90;;;22.40;99.90;;;;;;5117406;28;20246;-45
2023/05/14 10:48:32;;;;;;;10.63;8.20;;;22.30;99.90;;;;;;5117323;28;20252;-52
2023/05/14 10:50:59;;;;;;;8.17;7.47;;;22.20;99.90;;;;;;5117132;28;20630;-50
2023/05/14 10:53:36;;;;;;;9.07;8.17;;;22.30;99.90;;;;;;5117411;28;20554;-52
2023/05/14 10:56:09;;;;;;;9.80;8.13;;;22.60;99.90;;;;;;5117457;28;20197;-53
2023/05/14 10:58:41;;;;;;;10.03;7.93;;;22.60;99.90;;;;;;5117429;28;20212;-50
2023/05/14 11:01:07;;;;;;;9.07;7.38;;;22.70;99.90;;;;;;5117090;28;20253;-51
2023/05/14 11:03:42;;;;;;;12.30;7.37;;;23.00;99.90;;;;;;5117559;28;20224;-51
2023/05/14 11:06:09;;;;;;;9.77;8.20;;;23.30;99.90;;;;;;5116274;28;20524;-51
2023/05/14 11:08:36;;;;;;;8.80;8.00;;;23.70;99.90;;;;;;5117110;28;20170;-51
2023/05/14 11:11:01;;;;;;;10.60;9.60;;;24.00;99.90;;;;;;5116839;28;20178;-52
2023/05/14 11:13:27;;;;;;;11.10;9.38;;;24.20;99.90;;;;;;5116533;28;20201;-52
2023/05/14 11:15:53;;;;;;;13.95;9.57;;;24.40;99.90;;;;;;5116484;28;20174;-52
2023/05/14 11:18:28;;;;;;;12.13;10.15;;;24.30;99.90;;;;;;5116705;28;20263;-51
2023/05/14 11:20:58;;;;;;;12.07;9.73;;;24.20;99.90;;;;;;5116672;28;20165;-52
2023/05/14 11:23:26;;;;;;;9.70;8.73;;;24.20;99.90;;;;;;5116410;28;20246;-50
2023/05/14 11:25:53;;;;;;;12.48;9.65;;;24.00;99.90;;;;;;5116507;28;20189;-51
2023/05/14 11:28:21;;;;;;;11.15;10.00;;;23.90;99.90;;;;;;5116209;28;20174;-51
2023/05/14 11:30:47;;;;;;;12.82;8.93;;;23.70;99.90;;;;;;5116300;28;20174;-46
2023/05/14 11:33:13;;;;;;;11.50;9.43;;;23.60;99.90;;;;;;5116418;28;20274;-46
2023/05/14 11:35:38;;;;;;;11.18;9.88;;;23.80;99.90;;;;;;5116004;28;20650;-46
2023/05/14 11:38:04;;;;;;;12.02;10.82;;;23.90;99.90;;;;;;5115769;28;20189;-46
2023/05/14 11:40:29;;;;;;;12.07;10.18;;;23.90;99.90;;;;;;5116057;28;20181;-46
2023/05/14 11:42:55;;;;;;;14.25;10.27;;;23.80;99.90;;;;;;5116155;28;20237;-45
2023/05/14 11:45:26;;;;;;;11.23;10.10;;;23.80;99.90;;;;;;5116224;28;20536;-46
2023/05/14 11:47:55;;;;;;;11.65;9.38;;;23.80;99.90;;;;;;5115945;28;20261;-46
2023/05/14 11:50:23;;;;;;;9.00;8.10;;;23.70;99.90;;;;;;5116410;28;20174;-46
2023/05/14 11:52:49;;;;;;;8.40;7.63;;;23.50;99.90;;;;;;5115691;28;20568;-46
2023/05/14 11:55:16;;;;;;;14.13;10.00;;;23.70;99.90;;;;;;5116109;28;20212;-45
2023/05/14 11:57:42;;;;;;;12.40;9.95;;;24.00;99.90;;;;;;5114488;28;20177;-45
2023/05/14 12:00:12;;;;;;;9.55;8.65;;;24.30;99.90;;;;;;5115652;28;20178;-45
2023/05/14 12:02:38;;;;;;;12.27;9.20;;;24.60;99.90;;;;;;5114906;28;20766;-46
2023/05/14 12:05:06;;;;;;;10.10;9.10;;;24.70;99.90;;;;;;5115535;28;20225;-45
2023/05/14 12:07:31;;;;;;;7.28;6.55;;;24.70;99.90;;;;;;5115529;28;20280;-45
2023/05/14 12:10:00;;;;;;;9.45;5.28;;;24.60;99.90;;;;;;5115543;28;20657;-46
2023/05/14 12:12:26;;;;;;;9.77;6.80;;;24.40;99.90;;;;;;5115682;28;20197;-46
2023/05/14 12:14:51;;;;;;;9.45;6.55;;;24.30;99.90;;;;;;5115953;28;20182;-46
2023/05/14 12:17:20;;;;;;;9.10;8.00;;;24.00;99.90;;;;;;5115644;28;20257;-46
2023/05/14 12:19:47;;;;;;;6.93;4.80;;;23.80;99.90;;;;;;5115569;28;20230;-46
2023/05/14 12:22:15;;;;;;;7.78;4.70;;;23.50;99.90;;;;;;5115393;28;20176;-46
2023/05/14 12:24:42;;;;;;;5.88;3.50;;;23.30;99.90;;;;;;5115234;28;20178;-46
2023/05/14 12:27:09;;;;;;;4.22;3.67;;;23.20;99.90;;;;;;5115446;28;20319;-46
2023/05/14 12:29:37;;;;;;;4.13;3.53;;;23.20;99.90;;;;;;5115151;28;20721;-46
2023/05/14 12:32:08;;;;;;;8.40;4.10;;;23.20;99.90;;;;;;5115338;28;20182;-46
2023/05/14 12:34:34;;;;;;;9.15;3.80;;;23.30;99.90;;;;;;5115233;28;20167;-46